createdAt,value
2022-12-27T00:01:48.215Z,3.22
2022-12-27T00:04:16.688Z,5.75
2022-12-27T00:06:46.424Z,5.00
2022-12-27T00:09:14.614Z,4.20
2022-12-27T00:11:42.890Z,5.32
2022-12-27T00:14:12.644Z,6.50
2022-12-27T00:16:41.262Z,2.95
2022-12-27T00:19:09.418Z,8.55
2022-12-27T00:21:37.772Z,10.15
2022-12-27T00:24:08.013Z,8.23
2022-12-27T00:26:36.967Z,8.70
2022-12-27T00:29:05.559Z,13.40
2022-12-27T00:31:34.885Z,11.50
2022-12-27T00:34:04.512Z,12.43
2022-12-27T00:36:33.219Z,9.30
2022-12-27T00:39:01.670Z,5.70
2022-12-27T00:41:31.464Z,5.95
2022-12-27T00:43:59.779Z,12.35
2022-12-27T00:46:33.741Z,12.20
2022-12-27T00:49:02.024Z,8.40
2022-12-27T00:51:30.313Z,12.52
2022-12-27T00:53:58.632Z,11.70
2022-12-27T00:56:28.570Z,6.15
2022-12-27T00:58:59.126Z,4.20
2022-12-27T01:01:29.188Z,12.38
2022-12-27T01:03:58.254Z,8.55
2022-12-27T01:06:29.674Z,5.55
2022-12-27T01:08:58.143Z,8.27
2022-12-27T01:11:28.569Z,5.22
2022-12-27T01:13:59.142Z,6.32
2022-12-27T01:16:29.684Z,7.18
2022-12-27T01:18:58.033Z,4.45
2022-12-27T01:21:28.026Z,3.63
2022-12-27T01:23:56.547Z,8.20
2022-12-27T01:26:25.327Z,7.63
2022-12-27T01:28:54.401Z,7.18
2022-12-27T01:31:26.270Z,4.78
2022-12-27T01:33:56.395Z,4.25
2022-12-27T01:36:25.571Z,6.00
2022-12-27T01:38:53.951Z,4.43
2022-12-27T01:41:42.434Z,4.55
2022-12-27T01:44:53.486Z,5.38
2022-12-27T01:47:43.157Z,1.63
2022-12-27T01:50:16.549Z,2.53
2022-12-27T01:55:21.170Z,5.22
2022-12-27T01:57:50.436Z,2.97
2022-12-27T02:00:18.967Z,5.65
2022-12-27T02:02:48.884Z,5.47
2022-12-27T02:05:19.171Z,3.35
2022-12-27T02:07:56.172Z,1.58
2022-12-27T02:10:24.469Z,7.25
2022-12-27T02:12:52.780Z,5.93
2022-12-27T02:15:21.259Z,6.30
2022-12-27T02:17:51.208Z,4.53
2022-12-27T02:20:21.636Z,2.40
2022-12-27T02:23:45.899Z,7.60
2022-12-27T02:26:40.612Z,2.67
2022-12-27T02:29:37.382Z,6.15
2022-12-27T02:32:07.784Z,3.95
2022-12-27T02:34:46.870Z,4.85
2022-12-27T02:37:15.593Z,3.90
2022-12-27T02:39:47.162Z,4.68
2022-12-27T02:42:33.925Z,4.97
2022-12-27T02:45:21.330Z,7.45
2022-12-27T02:48:08.087Z,6.95
2022-12-27T02:51:03.719Z,4.68
2022-12-27T02:53:38.180Z,2.17
2022-12-27T02:56:33.620Z,5.05
2022-12-27T02:59:14.340Z,3.95
2022-12-27T03:02:08.129Z,3.05
2022-12-27T03:07:23.226Z,4.72
2022-12-27T03:10:25.258Z,4.13
2022-12-27T03:13:17.057Z,3.42
2022-12-27T03:15:56.885Z,7.57
2022-12-27T03:18:57.257Z,4.55
2022-12-27T03:21:45.308Z,5.35
2022-12-27T03:24:31.183Z,3.28
2022-12-27T03:27:00.006Z,2.47
2022-12-27T03:29:45.999Z,2.55
2022-12-27T03:32:32.827Z,8.35
2022-12-27T03:35:07.746Z,1.45
2022-12-27T03:37:56.303Z,2.92
2022-12-27T03:40:30.955Z,5.38
2022-12-27T03:43:11.876Z,2.22
2022-12-27T03:46:08.805Z,3.42
2022-12-27T03:48:41.797Z,4.05
2022-12-27T03:51:11.774Z,4.32
2022-12-27T03:53:42.207Z,11.77
2022-12-27T03:56:11.075Z,2.95
2022-12-27T03:58:39.313Z,7.00
2022-12-27T04:01:07.672Z,4.88
2022-12-27T04:03:36.147Z,6.90
2022-12-27T04:06:04.401Z,8.02
2022-12-27T04:08:51.547Z,5.65
2022-12-27T04:11:37.119Z,6.20
2022-12-27T04:14:22.643Z,3.08
2022-12-27T04:17:08.235Z,3.17
2022-12-27T04:19:54.089Z,8.50
2022-12-27T04:22:39.647Z,7.97
2022-12-27T04:25:27.301Z,3.92
2022-12-27T04:28:12.844Z,3.13
2022-12-27T04:30:58.213Z,9.02
2022-12-27T04:33:43.827Z,5.25
2022-12-27T04:36:12.190Z,4.45
2022-12-27T04:38:40.450Z,6.95
2022-12-27T04:41:27.417Z,5.30
2022-12-27T04:44:12.872Z,5.47
2022-12-27T04:46:59.479Z,4.05
2022-12-27T04:49:45.475Z,4.65
2022-12-27T04:52:35.539Z,6.00
2022-12-27T04:55:13.824Z,8.18
2022-12-27T04:57:43.617Z,5.45
2022-12-27T05:00:30.833Z,8.35
2022-12-27T05:02:59.510Z,8.07
2022-12-27T05:05:28.004Z,10.88
2022-12-27T05:08:14.388Z,7.75
2022-12-27T05:10:59.875Z,7.78
2022-12-27T05:13:47.001Z,6.50
2022-12-27T05:16:15.446Z,8.50
2022-12-27T05:18:44.939Z,4.45
2022-12-27T05:21:13.196Z,8.85
2022-12-27T05:24:04.937Z,5.93
2022-12-27T05:26:34.277Z,5.35
2022-12-27T05:29:03.968Z,11.35
2022-12-27T05:31:32.503Z,6.75
2022-12-27T05:34:00.876Z,5.53
2022-12-27T05:36:29.344Z,7.65
2022-12-27T05:38:57.755Z,8.02
2022-12-27T05:41:26.015Z,7.80
2022-12-27T05:43:54.233Z,6.70
2022-12-27T05:46:24.107Z,10.75
2022-12-27T05:48:52.423Z,6.97
2022-12-27T05:51:22.217Z,5.65
2022-12-27T05:53:50.923Z,7.50
2022-12-27T05:56:21.142Z,2.42
2022-12-27T05:58:49.561Z,10.63
2022-12-27T06:01:18.895Z,7.50
2022-12-27T06:03:49.791Z,9.35
2022-12-27T06:06:18.022Z,11.15
2022-12-27T06:08:46.223Z,10.80
2022-12-27T06:11:16.146Z,5.72
2022-12-27T06:13:46.068Z,8.15
2022-12-27T06:16:14.418Z,8.32
2022-12-27T06:18:43.584Z,4.97
2022-12-27T06:21:14.980Z,5.88
2022-12-27T06:23:44.836Z,6.63
2022-12-27T06:26:16.049Z,7.72
2022-12-27T06:28:44.404Z,9.20
2022-12-27T06:31:12.968Z,9.43
2022-12-27T06:33:41.253Z,10.77
2022-12-27T06:36:11.020Z,10.50
2022-12-27T06:38:40.772Z,15.68
2022-12-27T06:41:11.665Z,7.00
2022-12-27T06:43:40.311Z,10.02
2022-12-27T06:46:17.049Z,11.10
2022-12-27T06:48:45.800Z,5.45
2022-12-27T06:51:15.986Z,4.68
2022-12-27T06:53:45.665Z,9.85
2022-12-27T06:56:16.790Z,5.80
2022-12-27T06:58:45.515Z,5.93
2022-12-27T07:01:15.489Z,8.98
2022-12-27T07:03:44.053Z,8.85
2022-12-27T07:06:13.082Z,7.20
2022-12-27T07:08:41.451Z,6.78
2022-12-27T07:11:13.227Z,5.47
2022-12-27T07:13:43.788Z,7.20
2022-12-27T07:16:13.879Z,4.63
2022-12-27T07:18:42.568Z,10.15
2022-12-27T07:21:13.123Z,11.15
2022-12-27T07:23:41.906Z,4.07
2022-12-27T07:26:12.935Z,3.67
2022-12-27T07:28:42.487Z,5.70
2022-12-27T07:31:11.450Z,3.40
2022-12-27T07:33:39.992Z,6.05
2022-12-27T07:36:10.588Z,9.75
2022-12-27T07:38:38.927Z,7.53
2022-12-27T07:41:07.511Z,4.15
2022-12-27T07:43:37.259Z,8.60
2022-12-27T07:46:06.595Z,7.13
2022-12-27T07:48:34.845Z,4.38
2022-12-27T07:51:03.280Z,3.28
2022-12-27T07:53:32.206Z,5.53
2022-12-27T07:56:00.611Z,7.90
2022-12-27T07:58:28.820Z,15.48
2022-12-27T08:00:58.992Z,4.22
2022-12-27T08:03:27.242Z,5.90
2022-12-27T08:05:55.617Z,5.45
2022-12-27T08:08:25.692Z,4.57
2022-12-27T08:10:54.183Z,11.25
2022-12-27T08:13:22.537Z,6.85
2022-12-27T08:15:53.832Z,5.82
2022-12-27T08:18:23.568Z,8.13
2022-12-27T08:20:52.321Z,8.32
2022-12-27T08:23:20.600Z,4.82
2022-12-27T08:25:49.314Z,6.88
2022-12-27T08:28:19.137Z,5.22
2022-12-27T08:30:48.334Z,6.22
2022-12-27T08:33:16.985Z,5.97
2022-12-27T08:35:54.969Z,3.28
2022-12-27T08:38:23.758Z,7.80
2022-12-27T08:40:52.046Z,5.13
2022-12-27T08:43:20.720Z,5.57
2022-12-27T08:45:49.104Z,8.65
2022-12-27T08:48:17.392Z,8.23
2022-12-27T08:50:46.991Z,6.22
2022-12-27T08:53:15.235Z,8.57
2022-12-27T08:55:43.462Z,4.88
2022-12-27T08:58:16.384Z,6.95
2022-12-27T09:00:45.095Z,3.97
2022-12-27T09:03:13.452Z,9.45
2022-12-27T09:05:42.348Z,5.85
2022-12-27T09:08:12.669Z,6.47
2022-12-27T09:10:41.019Z,6.43
2022-12-27T09:13:09.175Z,7.25
2022-12-27T09:15:39.078Z,6.13
2022-12-27T09:18:08.202Z,6.60
2022-12-27T09:20:36.445Z,6.05
2022-12-27T09:23:04.870Z,5.38
2022-12-27T09:25:34.529Z,9.98
2022-12-27T09:28:02.765Z,7.72
2022-12-27T09:30:31.066Z,10.43
2022-12-27T09:32:59.881Z,7.50
2022-12-27T09:35:28.061Z,12.05
2022-12-27T09:37:56.545Z,3.03
2022-12-27T09:40:24.877Z,5.90
2022-12-27T09:43:11.823Z,5.82
2022-12-27T09:45:43.353Z,8.88
2022-12-27T09:48:14.935Z,7.70
2022-12-27T09:50:49.501Z,9.23
2022-12-27T09:53:20.273Z,5.25
2022-12-27T09:55:50.229Z,9.00
2022-12-27T09:58:33.884Z,12.70
2022-12-27T10:03:31.626Z,6.85
2022-12-27T10:06:08.926Z,10.45
2022-12-27T10:08:45.046Z,6.68
2022-12-27T10:11:36.297Z,8.48
2022-12-27T10:14:15.812Z,8.68
2022-12-27T10:16:50.220Z,12.32
2022-12-27T10:19:26.605Z,2.95
2022-12-27T10:22:03.247Z,11.70
2022-12-27T10:24:37.166Z,5.03
2022-12-27T10:27:13.094Z,5.47
2022-12-27T10:29:42.854Z,6.65
2022-12-27T10:32:13.987Z,12.95
2022-12-27T10:34:42.239Z,10.60
2022-12-27T10:37:13.300Z,10.18
2022-12-27T10:39:41.867Z,16.02
2022-12-27T10:42:17.029Z,11.57
2022-12-27T10:44:46.724Z,9.13
2022-12-27T10:47:15.078Z,10.30
2022-12-27T10:49:44.709Z,8.43
2022-12-27T10:52:19.945Z,18.30
2022-12-27T10:54:53.398Z,10.05
2022-12-27T11:00:16.712Z,14.45
2022-12-27T11:02:52.065Z,11.82
2022-12-27T11:05:25.343Z,9.07
2022-12-27T11:07:53.705Z,11.98
2022-12-27T11:10:23.701Z,15.05
2022-12-27T11:12:59.425Z,8.98
2022-12-27T11:15:30.605Z,11.60
2022-12-27T11:18:00.324Z,10.95
2022-12-27T11:20:29.747Z,14.98
2022-12-27T11:23:00.515Z,15.00
2022-12-27T11:25:29.697Z,12.43
2022-12-27T11:28:01.418Z,9.73
2022-12-27T11:30:32.814Z,12.73
2022-12-27T11:33:04.783Z,11.32
2022-12-27T11:35:35.719Z,12.32
2022-12-27T11:38:03.955Z,13.85
2022-12-27T11:40:34.956Z,10.48
2022-12-27T11:43:09.420Z,9.70
2022-12-27T11:45:42.265Z,11.32
2022-12-27T11:48:21.059Z,9.32
2022-12-27T11:51:12.482Z,6.82
2022-12-27T11:54:08.351Z,10.40
2022-12-27T11:56:37.086Z,10.63
2022-12-27T11:59:25.522Z,7.25
2022-12-27T12:02:29.309Z,9.05
2022-12-27T12:05:32.343Z,8.15
2022-12-27T12:08:15.663Z,9.95
2022-12-27T12:10:51.798Z,8.18
2022-12-27T12:13:54.315Z,4.95
2022-12-27T12:16:41.151Z,10.35
2022-12-27T12:19:18.589Z,6.43
2022-12-27T12:21:50.572Z,10.77
2022-12-27T12:24:38.392Z,7.43
2022-12-27T12:27:29.097Z,15.82
2022-12-27T12:30:27.422Z,12.98
2022-12-27T12:33:09.611Z,10.05
2022-12-27T12:35:49.391Z,7.93
2022-12-27T12:38:23.217Z,10.50
2022-12-27T12:41:23.629Z,15.05
2022-12-27T12:44:17.161Z,8.40
2022-12-27T12:46:48.558Z,11.43
2022-12-27T12:49:31.736Z,9.20
2022-12-27T12:52:17.179Z,15.55
2022-12-27T12:55:13.261Z,12.25
2022-12-27T12:57:49.704Z,10.13
2022-12-27T13:00:28.759Z,13.05
2022-12-27T13:03:23.597Z,13.63
2022-12-27T13:05:55.064Z,15.48
2022-12-27T13:08:31.101Z,13.23
2022-12-27T13:11:08.548Z,8.07
2022-12-27T13:13:45.857Z,15.93
2022-12-27T13:16:21.758Z,11.55
2022-12-27T13:18:58.470Z,21.88
2022-12-27T13:21:41.635Z,16.60
2022-12-27T13:24:16.272Z,17.40
2022-12-27T13:26:50.735Z,15.13
2022-12-27T13:29:36.369Z,11.02
2022-12-27T13:32:12.907Z,13.10
2022-12-27T13:34:47.458Z,13.25
2022-12-27T13:37:26.612Z,12.45
2022-12-27T13:40:26.912Z,15.30
2022-12-27T13:43:19.071Z,15.63
2022-12-27T13:45:56.788Z,16.98
2022-12-27T13:48:41.274Z,13.48
2022-12-27T13:51:18.124Z,19.02
2022-12-27T13:54:12.026Z,18.17
2022-12-27T13:59:46.226Z,19.00
2022-12-27T14:02:59.711Z,14.85
2022-12-27T14:06:06.460Z,12.10
2022-12-27T14:08:47.059Z,11.32
2022-12-27T14:11:24.811Z,13.35
2022-12-27T14:13:55.161Z,25.25
2022-12-27T14:16:35.576Z,21.05
2022-12-27T14:19:45.363Z,15.45
2022-12-27T14:22:42.941Z,14.57
2022-12-27T14:25:48.113Z,14.38
2022-12-27T14:28:48.519Z,12.32
2022-12-27T14:31:43.764Z,15.43
2022-12-27T14:34:37.061Z,15.38
2022-12-27T14:38:05.065Z,15.75
2022-12-27T14:40:49.189Z,16.02
2022-12-27T14:43:41.114Z,14.40
2022-12-27T14:46:44.806Z,11.02
2022-12-27T14:49:55.900Z,19.77
2022-12-27T14:53:05.963Z,16.10
2022-12-27T14:55:43.715Z,19.98
2022-12-27T14:58:30.992Z,13.60
2022-12-27T15:01:06.407Z,15.23
2022-12-27T15:03:55.499Z,15.15
2022-12-27T15:06:46.937Z,20.60
2022-12-27T15:09:26.371Z,16.90
2022-12-27T15:12:02.482Z,17.60
2022-12-27T15:14:46.210Z,14.77
2022-12-27T15:17:22.737Z,19.35
2022-12-27T15:20:16.686Z,16.95
2022-12-27T15:22:54.991Z,17.65
2022-12-27T15:25:32.120Z,11.27
2022-12-27T15:28:06.628Z,17.88
2022-12-27T15:30:44.275Z,21.23
2022-12-27T15:33:23.072Z,23.80
2022-12-27T15:35:56.723Z,21.25
2022-12-27T15:38:53.882Z,34.67
2022-12-27T15:41:36.389Z,26.55
2022-12-27T15:44:18.621Z,27.70
2022-12-27T15:47:10.915Z,25.33
2022-12-27T15:50:03.394Z,21.10
2022-12-27T15:52:40.657Z,9.05
2022-12-27T15:55:23.340Z,23.67
2022-12-27T15:58:08.587Z,20.73
2022-12-27T16:00:37.676Z,14.45
2022-12-27T16:03:24.453Z,27.67
2022-12-27T16:05:53.519Z,25.08
2022-12-27T16:08:42.570Z,15.30
2022-12-27T16:11:12.927Z,22.20
2022-12-27T16:13:49.061Z,18.77
2022-12-27T16:16:56.826Z,13.70
2022-12-27T16:20:06.943Z,22.98
2022-12-27T16:22:38.287Z,18.88
2022-12-27T16:25:28.686Z,27.50
2022-12-27T16:28:01.847Z,20.10
2022-12-27T16:30:52.408Z,13.75
2022-12-27T16:33:35.099Z,20.80
2022-12-27T16:36:21.173Z,15.63
2022-12-27T16:38:59.111Z,23.67
2022-12-27T16:41:41.102Z,27.92
2022-12-27T16:44:17.275Z,27.75
2022-12-27T16:46:59.592Z,27.58
2022-12-27T16:49:56.695Z,28.35
2022-12-27T16:52:37.595Z,33.22
2022-12-27T16:55:23.173Z,30.73
2022-12-27T16:57:52.401Z,25.15
2022-12-27T17:00:39.197Z,27.70
2022-12-27T17:03:40.749Z,19.27
2022-12-27T17:06:42.263Z,22.35
2022-12-27T17:09:41.738Z,22.02
2022-12-27T17:12:19.109Z,14.77
2022-12-27T17:14:48.037Z,17.00
2022-12-27T17:17:19.093Z,24.40
2022-12-27T17:19:52.382Z,28.42
2022-12-27T17:24:51.315Z,14.48
2022-12-27T17:27:31.824Z,21.20
2022-12-27T17:30:07.494Z,20.50
2022-12-27T17:32:47.149Z,23.20
2022-12-27T17:35:22.149Z,15.15
2022-12-27T17:38:03.693Z,17.55
2022-12-27T17:40:38.555Z,18.75
2022-12-27T17:43:34.038Z,27.23
2022-12-27T17:46:16.879Z,15.38
2022-12-27T17:48:46.623Z,13.82
2022-12-27T17:51:18.941Z,15.63
2022-12-27T17:54:04.945Z,24.13
2022-12-27T17:56:57.524Z,12.85
2022-12-27T17:59:27.559Z,21.15
2022-12-27T18:01:57.878Z,23.15
2022-12-27T18:04:28.133Z,19.25
2022-12-27T18:06:57.475Z,18.90
2022-12-27T18:09:38.207Z,22.83
2022-12-27T18:12:12.092Z,15.13
2022-12-27T18:14:40.456Z,19.40
2022-12-27T18:17:08.716Z,19.13
2022-12-27T18:19:38.216Z,24.17
2022-12-27T18:22:06.685Z,15.68
2022-12-27T18:24:35.277Z,11.98
2022-12-27T18:27:06.240Z,26.00
2022-12-27T18:29:36.028Z,15.55
2022-12-27T18:32:06.186Z,14.90
2022-12-27T18:34:38.393Z,20.23
2022-12-27T18:37:08.535Z,15.98
2022-12-27T18:39:38.521Z,16.73
2022-12-27T18:42:13.597Z,16.42
2022-12-27T18:44:46.979Z,21.10
2022-12-27T18:47:21.171Z,19.15
2022-12-27T18:49:54.086Z,13.57
2022-12-27T18:52:26.452Z,16.30
2022-12-27T18:54:55.624Z,11.03
2022-12-27T18:57:33.320Z,10.27
2022-12-27T19:00:12.499Z,10.32
2022-12-27T19:02:41.266Z,15.82
2022-12-27T19:05:29.503Z,18.60
2022-12-27T19:08:02.472Z,19.25
2022-12-27T19:10:33.719Z,15.02
2022-12-27T19:13:02.524Z,9.05
2022-12-27T19:15:39.484Z,19.17
2022-12-27T19:18:20.870Z,18.60
2022-12-27T19:20:55.452Z,11.82
2022-12-27T19:23:28.319Z,15.07
2022-12-27T19:26:02.281Z,12.50
2022-12-27T19:28:31.712Z,9.02
2022-12-27T19:31:18.374Z,17.02
2022-12-27T19:33:49.740Z,18.13
2022-12-27T19:36:18.247Z,14.15
2022-12-27T19:38:48.189Z,10.30
2022-12-27T19:41:16.609Z,13.48
2022-12-27T19:43:46.657Z,20.33
2022-12-27T19:46:19.209Z,13.20
2022-12-27T19:49:01.141Z,14.15
2022-12-27T19:51:37.362Z,14.18
2022-12-27T19:54:08.914Z,14.35
2022-12-27T19:56:38.786Z,16.27
2022-12-27T19:59:07.027Z,20.17
2022-12-27T20:01:36.823Z,12.68
2022-12-27T20:04:05.194Z,18.10
2022-12-27T20:06:33.471Z,18.50
2022-12-27T20:09:01.923Z,17.60
2022-12-27T20:11:30.264Z,18.70
2022-12-27T20:13:58.504Z,18.77
2022-12-27T20:16:26.903Z,10.07
2022-12-27T20:18:56.769Z,18.88
2022-12-27T20:21:25.067Z,14.48
2022-12-27T20:23:53.373Z,9.25
2022-12-27T20:26:24.009Z,16.58
2022-12-27T20:28:53.561Z,15.43
2022-12-27T20:31:22.859Z,17.58
2022-12-27T20:33:56.618Z,17.50
2022-12-27T20:36:25.188Z,14.23
2022-12-27T20:38:53.347Z,12.43
2022-12-27T20:41:23.166Z,11.00
2022-12-27T20:43:55.942Z,16.67
2022-12-27T20:46:24.869Z,13.20
2022-12-27T20:48:54.323Z,16.63
2022-12-27T20:51:25.416Z,13.23
2022-12-27T20:53:56.432Z,13.82
2022-12-27T20:56:25.161Z,21.73
2022-12-27T20:58:53.746Z,13.00
2022-12-27T21:01:23.603Z,8.95
2022-12-27T21:03:52.025Z,14.65
2022-12-27T21:06:24.268Z,12.68
2022-12-27T21:08:57.136Z,12.52
2022-12-27T21:11:27.968Z,12.85
2022-12-27T21:13:56.808Z,16.15
2022-12-27T21:16:26.767Z,19.27
2022-12-27T21:18:56.023Z,14.82
2022-12-27T21:21:28.612Z,12.82
2022-12-27T21:23:57.698Z,13.43
2022-12-27T21:26:28.100Z,17.48
2022-12-27T21:28:57.281Z,17.55
2022-12-27T21:31:25.948Z,10.77
2022-12-27T21:33:54.243Z,20.10
2022-12-27T21:36:24.611Z,17.02
2022-12-27T21:38:54.764Z,13.02
2022-12-27T21:41:24.515Z,18.50
2022-12-27T21:43:53.269Z,14.02
2022-12-27T21:46:23.460Z,17.40
2022-12-27T21:48:55.880Z,13.30
2022-12-27T21:51:24.590Z,14.70
2022-12-27T21:53:54.430Z,13.75
2022-12-27T21:56:23.111Z,16.95
2022-12-27T21:58:51.810Z,18.38
2022-12-27T22:01:22.465Z,10.35
2022-12-27T22:03:52.294Z,15.02
2022-12-27T22:06:22.507Z,9.88
2022-12-27T22:08:51.713Z,13.50
2022-12-27T22:11:22.657Z,9.80
2022-12-27T22:13:51.041Z,16.02
2022-12-27T22:16:20.878Z,16.17
2022-12-27T22:18:50.164Z,14.65
2022-12-27T22:21:19.884Z,14.32
2022-12-27T22:23:50.318Z,11.43
2022-12-27T22:26:21.446Z,19.90
2022-12-27T22:28:49.958Z,17.00
2022-12-27T22:31:20.582Z,16.65
2022-12-27T22:33:49.309Z,10.43
2022-12-27T22:36:19.086Z,9.23
2022-12-27T22:38:49.672Z,9.05
2022-12-27T22:41:21.768Z,8.23
2022-12-27T22:43:51.912Z,9.40
2022-12-27T22:46:20.579Z,14.73
2022-12-27T22:48:50.860Z,12.00
2022-12-27T22:51:20.646Z,7.90
2022-12-27T22:53:49.326Z,10.80
2022-12-27T22:56:19.075Z,12.95
2022-12-27T22:58:49.012Z,11.70
2022-12-27T23:01:19.167Z,11.07
2022-12-27T23:03:48.031Z,11.68
2022-12-27T23:06:16.783Z,11.43
2022-12-27T23:08:45.659Z,12.13
2022-12-27T23:11:15.054Z,6.35
2022-12-27T23:13:43.535Z,12.10
2022-12-27T23:16:13.276Z,10.18
2022-12-27T23:18:41.651Z,14.00
2022-12-27T23:21:20.708Z,10.70
2022-12-27T23:23:52.602Z,11.02
2022-12-27T23:26:23.193Z,9.80
2022-12-27T23:28:53.015Z,8.05
2022-12-27T23:31:23.997Z,9.93
2022-12-27T23:33:52.908Z,10.27
2022-12-27T23:36:21.847Z,6.82
2022-12-27T23:38:50.629Z,15.20
2022-12-27T23:41:20.302Z,12.52
2022-12-27T23:43:53.743Z,9.75
2022-12-27T23:46:27.688Z,10.38
2022-12-27T23:48:56.493Z,8.63
2022-12-27T23:51:25.025Z,13.60
2022-12-27T23:53:53.341Z,11.93
2022-12-27T23:56:23.855Z,10.07
2022-12-27T23:58:53.842Z,10.40
